Time;durP1;ratioP1;P1;durP2;ratioP2;P2;SDS_P1;SDS_P2;PMS_P1;PMS_P2;Temp;Humidity;BMP_temperature;BMP_pressure;BME280_temperature;BME280_humidity;BME280_pressure;Samples;Min_cycle;Max_cycle;Signal;HPM_P1;HPM_P2
2022/03/10 16:05:13;;;;;;;8.50;4.35;;;16.40;1.00;;;;;;5595276;22;34300;-75
2022/03/10 16:07:42;;;;;;;8.82;4.50;;;16.30;2.50;;;;;;4972214;28;34055;-75
2022/03/10 16:10:09;;;;;;;6.55;4.53;;;16.20;2.20;;;;;;4987508;28;34199;-75
2022/03/10 16:12:36;;;;;;;8.52;4.53;;;16.10;2.30;;;;;;5004945;28;34128;-75
2022/03/10 16:15:04;;;;;;;7.82;4.80;;;16.00;2.30;;;;;;4987257;28;36557;-75
2022/03/10 16:17:30;;;;;;;9.63;4.78;;;15.90;2.50;;;;;;4987731;28;34290;-75
2022/03/10 16:19:56;;;;;;;7.80;4.50;;;15.90;2.40;;;;;;4987591;28;34469;-75
2022/03/10 16:22:22;;;;;;;7.35;4.80;;;15.70;2.50;;;;;;4987924;28;34555;-75
2022/03/10 16:24:48;;;;;;;9.77;4.55;;;15.70;2.70;;;;;;4987023;28;36451;-75
2022/03/10 16:27:14;;;;;;;8.70;5.30;;;15.60;2.50;;;;;;4987193;28;34163;-75
2022/03/10 16:29:40;;;;;;;8.85;5.45;;;15.50;2.70;;;;;;4970318;28;34174;-75
2022/03/10 16:32:06;;;;;;;7.93;4.32;;;15.30;2.80;;;;;;5005079;28;34187;-75
2022/03/10 16:34:34;;;;;;;10.77;5.13;;;15.30;2.80;;;;;;4971224;28;35183;-75
2022/03/10 16:37:00;;;;;;;6.43;4.40;;;15.10;2.40;;;;;;5002571;28;34194;-75
2022/03/10 16:39:27;;;;;;;12.82;4.60;;;15.00;3.00;;;;;;5004505;28;34296;-75
2022/03/10 16:41:54;;;;;;;8.93;4.47;;;14.90;3.00;;;;;;5000416;28;34464;-75
2022/03/10 16:44:20;;;;;;;7.88;4.65;;;14.80;3.10;;;;;;4971323;28;36021;-76
2022/03/10 16:46:48;;;;;;;13.48;4.85;;;14.70;3.30;;;;;;5004118;28;34324;-75
2022/03/10 16:49:15;;;;;;;7.38;4.40;;;14.60;3.30;;;;;;4986795;28;34162;-75
2022/03/10 16:51:43;;;;;;;7.00;4.47;;;14.50;3.20;;;;;;4970725;28;34045;-75
2022/03/10 16:54:09;;;;;;;8.52;4.70;;;14.30;3.60;;;;;;5003866;28;34459;-75
2022/03/10 16:56:36;;;;;;;6.40;4.47;;;14.20;3.60;;;;;;5004513;28;34446;-75
2022/03/10 16:59:05;;;;;;;8.88;5.10;;;14.10;3.90;;;;;;4986331;28;34238;-75
2022/03/10 17:01:31;;;;;;;8.52;4.78;;;14.00;3.90;;;;;;4972190;28;34162;-76
2022/03/10 17:03:58;;;;;;;7.25;4.53;;;13.80;3.90;;;;;;4970716;28;36326;-75
2022/03/10 17:06:24;;;;;;;7.88;4.85;;;13.70;4.40;;;;;;4970349;28;34116;-75
2022/03/10 17:08:50;;;;;;;7.75;4.78;;;13.50;4.50;;;;;;5004290;28;34039;-75
2022/03/10 17:11:16;;;;;;;7.25;4.55;;;13.20;4.70;;;;;;4986981;28;34364;-75
2022/03/10 17:13:42;;;;;;;7.30;4.20;;;13.10;5.20;;;;;;5004184;28;34458;-75
2022/03/10 17:16:09;;;;;;;6.95;4.47;;;12.90;5.40;;;;;;4986453;28;34426;-75
2022/03/10 17:18:35;;;;;;;9.27;4.20;;;12.60;5.50;;;;;;4987278;28;34151;-75
2022/03/10 17:21:02;;;;;;;7.18;4.88;;;12.40;5.80;;;;;;5005646;28;33991;-75
2022/03/10 17:23:29;;;;;;;6.28;4.40;;;12.20;6.10;;;;;;5004856;28;35279;-75
2022/03/10 17:25:56;;;;;;;7.15;4.53;;;12.00;6.40;;;;;;4970826;28;34231;-75
2022/03/10 17:28:23;;;;;;;7.07;4.38;;;11.70;6.80;;;;;;5004189;28;34149;-75
2022/03/10 17:30:49;;;;;;;6.10;4.00;;;11.50;7.10;;;;;;4985915;28;34218;-75
2022/03/10 17:33:15;;;;;;;6.63;4.28;;;11.20;7.30;;;;;;5003592;28;34216;-75
2022/03/10 17:35:41;;;;;;;8.27;4.18;;;11.00;7.60;;;;;;4970015;28;34345;-75
2022/03/10 17:38:09;;;;;;;6.55;4.25;;;10.80;7.90;;;;;;5004049;28;34245;-75
2022/03/10 17:40:37;;;;;;;6.38;4.28;;;10.60;8.20;;;;;;4986312;28;34359;-75
2022/03/10 17:43:04;;;;;;;6.00;4.28;;;10.40;8.60;;;;;;4986329;28;34446;-75
2022/03/10 17:45:31;;;;;;;6.55;4.22;;;10.20;8.70;;;;;;4986217;28;34256;-75
2022/03/10 17:47:57;;;;;;;7.15;4.05;;;10.00;8.90;;;;;;4986355;28;34113;-75
2022/03/10 17:50:24;;;;;;;6.88;4.53;;;9.80;9.10;;;;;;4986351;28;34435;-75
2022/03/10 17:52:52;;;;;;;6.35;4.75;;;9.70;9.40;;;;;;4969516;28;35707;-75
2022/03/10 17:55:18;;;;;;;8.02;5.07;;;9.50;9.90;;;;;;5004055;28;34275;-75
2022/03/10 17:57:44;;;;;;;8.90;4.45;;;9.30;9.80;;;;;;4985572;28;34471;-75
2022/03/10 18:00:11;;;;;;;8.98;5.07;;;9.20;10.00;;;;;;4985130;28;34619;-75
2022/03/10 18:02:37;;;;;;;8.25;5.13;;;9.00;10.30;;;;;;4986432;28;35619;-75
2022/03/10 18:05:04;;;;;;;10.10;5.68;;;8.90;10.40;;;;;;4985556;28;34174;-75
2022/03/10 18:07:30;;;;;;;11.80;5.13;;;8.70;10.60;;;;;;4985510;28;34345;-75
2022/03/10 18:09:56;;;;;;;10.57;6.47;;;8.60;10.80;;;;;;4986150;28;34362;-75
2022/03/10 18:12:22;;;;;;;9.88;5.30;;;8.40;11.00;;;;;;5003409;28;34847;-75
2022/03/10 18:14:48;;;;;;;11.35;5.57;;;8.30;11.20;;;;;;4985708;28;34163;-75
2022/03/10 18:17:15;;;;;;;12.25;6.47;;;8.10;11.30;;;;;;4985697;28;34269;-75
2022/03/10 18:19:41;;;;;;;10.13;6.28;;;8.00;11.50;;;;;;4985862;28;34072;-75
2022/03/10 18:22:07;;;;;;;8.18;5.50;;;7.90;11.60;;;;;;5002600;28;34540;-76
2022/03/10 18:24:33;;;;;;;9.90;5.57;;;7.80;11.70;;;;;;4985423;28;34401;-75
2022/03/10 18:26:59;;;;;;;9.13;5.88;;;7.70;12.00;;;;;;5003110;28;34209;-75
2022/03/10 18:29:26;;;;;;;10.75;6.22;;;7.50;12.20;;;;;;4985211;28;35230;-75
2022/03/10 18:31:52;;;;;;;11.32;6.30;;;7.40;12.50;;;;;;4985344;28;36226;-75
2022/03/10 18:34:19;;;;;;;8.27;5.60;;;7.30;12.60;;;;;;5018363;28;34339;-75
2022/03/10 18:36:45;;;;;;;7.75;5.32;;;7.20;12.70;;;;;;4985168;28;34140;-75
2022/03/10 18:39:11;;;;;;;8.90;5.35;;;7.10;12.90;;;;;;4985668;28;34097;-75
2022/03/10 18:41:37;;;;;;;9.63;5.75;;;6.90;13.00;;;;;;5002607;28;34205;-75
2022/03/10 18:44:03;;;;;;;9.52;4.97;;;6.80;13.10;;;;;;4985379;28;34169;-75
2022/03/10 18:46:30;;;;;;;10.57;5.35;;;6.70;13.30;;;;;;4969086;28;34103;-75
2022/03/10 18:48:56;;;;;;;11.73;6.32;;;6.60;13.30;;;;;;5018106;28;34273;-75
2022/03/10 18:51:22;;;;;;;11.77;7.00;;;6.50;13.50;;;;;;4985034;28;36478;-75
2022/03/10 18:53:48;;;;;;;11.27;6.90;;;6.40;13.70;;;;;;4984877;28;34474;-75
2022/03/10 18:56:14;;;;;;;13.20;7.57;;;6.30;13.80;;;;;;5002716;28;34434;-75
2022/03/10 18:58:40;;;;;;;15.25;7.38;;;6.20;13.80;;;;;;4984184;28;34364;-75
2022/03/10 19:01:06;;;;;;;12.45;7.45;;;6.10;13.80;;;;;;5002627;28;35311;-75
2022/03/10 19:03:32;;;;;;;13.27;6.93;;;6.10;14.00;;;;;;4984077;28;34247;-75
2022/03/10 19:05:58;;;;;;;11.52;7.05;;;6.00;14.20;;;;;;4969708;28;34264;-75
2022/03/10 19:08:25;;;;;;;11.18;6.70;;;5.90;14.20;;;;;;4965206;28;34540;-75
2022/03/10 19:10:51;;;;;;;12.68;6.90;;;5.80;14.20;;;;;;4971867;28;34474;-75
2022/03/10 19:13:17;;;;;;;9.23;6.63;;;5.80;14.40;;;;;;4949591;28;34404;-75
2022/03/10 19:15:46;;;;;;;12.40;6.55;;;5.70;14.40;;;;;;4933773;28;34657;-75
2022/03/10 19:18:12;;;;;;;13.00;5.88;;;5.60;14.60;;;;;;4949895;28;34798;-75
2022/03/10 19:20:38;;;;;;;10.48;6.55;;;5.60;14.80;;;;;;4932685;28;35632;-75
2022/03/10 19:23:03;;;;;;;12.27;5.80;;;5.50;14.90;;;;;;4933404;28;34211;-76
2022/03/10 19:25:29;;;;;;;7.85;5.63;;;5.40;14.90;;;;;;4960623;28;34147;-75
2022/03/10 19:27:55;;;;;;;7.65;5.43;;;5.30;15.10;;;;;;4970126;28;34484;-76
2022/03/10 19:30:22;;;;;;;9.07;5.72;;;5.20;15.20;;;;;;4969457;28;35755;-75
2022/03/10 19:32:48;;;;;;;9.20;5.07;;;5.20;15.30;;;;;;4968425;28;34201;-75
2022/03/10 19:35:14;;;;;;;10.15;5.20;;;5.10;15.60;;;;;;4968656;28;34287;-75
2022/03/10 19:37:40;;;;;;;8.80;5.43;;;5.00;15.60;;;;;;4986002;28;34213;-75
2022/03/10 19:40:08;;;;;;;7.05;4.70;;;4.90;15.60;;;;;;4968311;28;35777;-75
2022/03/10 19:42:35;;;;;;;7.97;5.03;;;4.90;15.70;;;;;;4969016;28;34498;-74
2022/03/10 19:45:01;;;;;;;8.30;4.75;;;4.80;15.70;;;;;;4968353;28;34645;-75
2022/03/10 19:47:27;;;;;;;7.00;4.75;;;4.80;15.90;;;;;;4985613;28;34167;-75
2022/03/10 19:49:53;;;;;;;7.13;4.55;;;4.70;15.90;;;;;;4985540;28;34263;-75
2022/03/10 19:52:20;;;;;;;7.20;4.90;;;4.70;16.20;;;;;;4968968;28;34266;-75
2022/03/10 19:54:46;;;;;;;8.95;5.25;;;4.60;16.20;;;;;;4968735;28;34412;-75
2022/03/10 19:57:12;;;;;;;8.48;5.35;;;4.50;16.30;;;;;;4968392;28;34395;-75
2022/03/10 19:59:38;;;;;;;7.90;4.60;;;4.50;16.20;;;;;;4985486;28;34312;-75
2022/03/10 20:02:04;;;;;;;9.15;5.10;;;4.50;16.40;;;;;;4967981;28;34362;-75
2022/03/10 20:04:32;;;;;;;8.45;5.15;;;4.40;16.40;;;;;;4969659;28;34264;-75
2022/03/10 20:06:58;;;;;;;10.07;5.47;;;4.30;16.50;;;;;;4987769;28;34198;-75
2022/03/10 20:09:24;;;;;;;11.38;5.57;;;4.30;16.70;;;;;;5004939;28;34870;-75
2022/03/10 20:11:50;;;;;;;9.93;5.22;;;4.20;16.70;;;;;;4987958;28;34244;-75
2022/03/10 20:14:16;;;;;;;9.77;5.10;;;4.20;16.70;;;;;;4955150;28;34175;-75
2022/03/10 20:16:42;;;;;;;11.45;5.45;;;4.10;16.70;;;;;;4987843;28;34423;-76
2022/03/10 20:19:08;;;;;;;9.18;5.00;;;4.10;16.70;;;;;;4987784;28;35820;-76
2022/03/10 20:21:34;;;;;;;10.77;5.22;;;4.00;16.90;;;;;;4986336;28;34285;-75
2022/03/10 20:24:00;;;;;;;11.00;5.13;;;4.00;17.00;;;;;;5019911;28;34306;-75
2022/03/10 20:26:26;;;;;;;13.23;5.13;;;3.90;17.10;;;;;;5005177;28;34349;-75
2022/03/10 20:28:53;;;;;;;9.77;5.03;;;3.90;17.20;;;;;;4987101;28;35849;-75
2022/03/10 20:31:20;;;;;;;9.48;5.35;;;3.80;17.20;;;;;;4987835;28;34119;-76
2022/03/10 20:33:48;;;;;;;9.75;5.18;;;3.80;17.30;;;;;;4987635;28;34388;-76
2022/03/10 20:36:14;;;;;;;8.07;4.60;;;3.70;17.50;;;;;;4971143;28;34198;-76
2022/03/10 20:38:40;;;;;;;7.78;4.60;;;3.70;17.50;;;;;;4970383;28;35594;-75
2022/03/10 20:41:07;;;;;;;7.30;5.15;;;3.60;17.50;;;;;;5005235;28;34229;-75
2022/03/10 20:43:33;;;;;;;7.15;4.53;;;3.60;17.50;;;;;;4986969;28;34299;-75
2022/03/10 20:45:59;;;;;;;9.63;4.68;;;3.60;17.80;;;;;;5004758;28;34289;-76
2022/03/10 20:48:25;;;;;;;8.65;4.82;;;3.50;17.80;;;;;;5004144;28;34337;-75
2022/03/10 20:50:52;;;;;;;7.15;4.30;;;3.50;17.80;;;;;;4986921;28;34443;-75
2022/03/10 20:53:18;;;;;;;8.57;4.60;;;3.50;18.00;;;;;;4987413;28;34333;-75
2022/03/10 20:55:44;;;;;;;6.10;4.13;;;3.50;17.90;;;;;;4987129;28;34590;-75
2022/03/10 20:58:10;;;;;;;6.80;4.63;;;3.40;17.80;;;;;;4970737;28;35779;-76
2022/03/10 21:00:36;;;;;;;6.32;3.95;;;3.40;17.90;;;;;;5004572;28;34472;-76
2022/03/10 21:03:03;;;;;;;5.55;3.90;;;3.40;17.90;;;;;;5004477;28;34360;-75
2022/03/10 21:05:29;;;;;;;7.63;4.15;;;3.30;17.90;;;;;;4975584;28;34048;-75
2022/03/10 21:07:56;;;;;;;6.53;3.88;;;3.30;18.00;;;;;;4967064;28;36033;-76
2022/03/10 21:10:22;;;;;;;6.53;3.60;;;3.20;18.10;;;;;;4984835;28;34228;-76
2022/03/10 21:12:48;;;;;;;4.88;3.17;;;3.20;18.20;;;;;;4967079;28;34368;-75
2022/03/10 21:15:15;;;;;;;4.45;3.42;;;3.10;18.20;;;;;;4984901;28;34481;-75
2022/03/10 21:17:42;;;;;;;5.90;3.67;;;3.10;18.30;;;;;;4951116;28;35804;-75
2022/03/10 21:20:09;;;;;;;5.35;3.33;;;3.00;18.40;;;;;;4967163;28;34237;-75
2022/03/10 21:22:36;;;;;;;4.82;3.17;;;3.00;18.40;;;;;;4967281;28;34185;-76
2022/03/10 21:25:03;;;;;;;5.38;3.28;;;2.90;18.60;;;;;;4966850;28;34161;-75
2022/03/10 21:27:29;;;;;;;7.13;4.20;;;2.80;18.60;;;;;;4950536;28;35889;-75
2022/03/10 21:29:55;;;;;;;5.47;3.60;;;2.80;18.70;;;;;;4966591;28;34382;-75
2022/03/10 21:32:21;;;;;;;5.38;3.42;;;2.80;18.80;;;;;;4967512;28;34240;-75
2022/03/10 21:34:47;;;;;;;5.95;3.88;;;2.70;19.00;;;;;;4983306;28;34598;-76
2022/03/10 21:37:13;;;;;;;4.00;2.97;;;2.70;18.90;;;;;;4967104;28;36223;-76
2022/03/10 21:39:41;;;;;;;3.75;3.00;;;2.70;19.00;;;;;;4984151;28;34222;-76
2022/03/10 21:42:07;;;;;;;5.80;3.17;;;2.70;19.10;;;;;;4984456;28;34375;-76
2022/03/10 21:44:37;;;;;;;6.35;3.05;;;2.60;19.00;;;;;;4984343;28;34304;-75
2022/03/10 21:47:05;;;;;;;7.05;3.03;;;2.60;19.10;;;;;;4951162;28;35930;-75
2022/03/10 21:49:31;;;;;;;7.10;3.38;;;2.60;19.30;;;;;;4966510;28;34218;-75
2022/03/10 21:51:57;;;;;;;4.40;3.33;;;2.50;19.20;;;;;;4984031;28;34161;-75
2022/03/10 21:54:23;;;;;;;5.57;3.40;;;2.40;19.30;;;;;;4966561;28;34485;-76
2022/03/10 21:56:50;;;;;;;4.97;3.40;;;2.40;19.30;;;;;;4966161;28;36596;-75
2022/03/10 21:59:16;;;;;;;6.25;3.47;;;2.30;19.50;;;;;;4966234;28;34195;-75
2022/03/10 22:01:42;;;;;;;4.03;2.75;;;2.30;19.50;;;;;;4966571;28;34413;-75
2022/03/10 22:04:08;;;;;;;4.18;3.03;;;2.20;19.50;;;;;;4966554;28;34338;-76
2022/03/10 22:06:36;;;;;;;5.07;3.38;;;2.20;19.80;;;;;;4985161;28;36758;-75
2022/03/10 22:09:02;;;;;;;6.75;3.47;;;2.10;19.90;;;;;;5001808;28;34366;-75
2022/03/10 22:11:28;;;;;;;5.90;3.33;;;2.10;20.00;;;;;;5002248;28;34191;-75
2022/03/10 22:13:54;;;;;;;6.00;3.45;;;2.00;20.00;;;;;;5002033;28;34115;-75
2022/03/10 22:16:20;;;;;;;6.63;3.33;;;2.00;20.10;;;;;;5001922;28;35503;-75
2022/03/10 22:18:45;;;;;;;5.32;3.47;;;2.00;20.00;;;;;;5001665;28;34241;-75
2022/03/10 22:21:11;;;;;;;4.50;3.00;;;2.00;20.10;;;;;;5002082;28;34186;-75
2022/03/10 22:23:38;;;;;;;9.45;3.53;;;1.90;20.80;;;;;;5001967;28;34060;-75
2022/03/10 22:26:04;;;;;;;5.32;3.40;;;1.80;20.40;;;;;;5001521;28;36768;-75
2022/03/10 22:28:30;;;;;;;4.53;3.38;;;1.80;20.40;;;;;;5001172;28;34332;-75
2022/03/10 22:30:56;;;;;;;4.63;3.42;;;1.70;20.80;;;;;;5003033;28;34273;-75
2022/03/10 22:33:23;;;;;;;4.72;3.38;;;1.70;20.80;;;;;;5003615;28;34160;-75
2022/03/10 22:35:50;;;;;;;4.75;3.15;;;1.70;20.70;;;;;;5002695;28;34024;-75
2022/03/10 22:38:16;;;;;;;6.55;3.15;;;1.70;21.40;;;;;;5001795;28;34677;-75
2022/03/10 22:40:42;;;;;;;5.63;3.58;;;1.70;20.90;;;;;;4985469;28;34544;-75
2022/03/10 22:43:08;;;;;;;5.07;2.97;;;1.60;20.70;;;;;;4985501;28;34396;-75
2022/03/10 22:45:34;;;;;;;7.65;3.90;;;1.60;21.40;;;;;;5001152;28;35549;-75
2022/03/10 22:48:01;;;;;;;5.28;3.47;;;1.60;21.00;;;;;;5001928;28;34426;-75
2022/03/10 22:55:50;;;;;;;5.07;3.50;;;1.50;21.30;;;;;;5002332;28;34170;-76
2022/03/10 22:58:16;;;;;;;7.05;2.95;;;1.50;21.30;;;;;;5001080;28;34660;-75
2022/03/10 23:00:44;;;;;;;5.45;3.25;;;1.40;21.80;;;;;;4985096;28;34305;-76
2022/03/10 23:03:11;;;;;;;4.18;3.20;;;1.40;21.90;;;;;;5001856;28;34438;-76
2022/03/10 23:08:19;;;;;;;5.55;3.63;;;1.30;21.80;;;;;;5002412;28;34186;-76
2022/03/10 23:10:46;;;;;;;4.68;3.30;;;1.30;22.00;;;;;;4984592;28;34524;-77
2022/03/10 23:13:13;;;;;;;3.60;2.85;;;1.20;22.10;;;;;;5001359;28;34135;-77
2022/03/10 23:15:39;;;;;;;5.75;3.58;;;1.10;22.50;;;;;;5000739;28;36701;-76
2022/03/10 23:18:05;;;;;;;5.32;3.50;;;1.10;22.40;;;;;;5001227;28;34186;-77
2022/03/10 23:20:32;;;;;;;5.57;3.35;;;1.10;22.60;;;;;;5001929;28;34169;-77
2022/03/10 23:22:58;;;;;;;6.07;3.67;;;1.00;22.40;;;;;;5001477;28;34294;-77
2022/03/10 23:25:24;;;;;;;7.88;3.97;;;1.00;22.20;;;;;;5002227;28;34631;-77
2022/03/10 23:27:50;;;;;;;6.97;4.05;;;1.00;22.20;;;;;;4968566;28;34269;-78
2022/03/10 23:30:17;;;;;;;6.70;4.03;;;1.00;22.70;;;;;;5002255;28;34040;-77
2022/03/10 23:32:44;;;;;;;6.68;3.80;;;0.90;22.70;;;;;;5002901;28;34142;-77
2022/03/10 23:35:11;;;;;;;7.28;4.18;;;0.90;22.50;;;;;;4984819;28;36923;-78
2022/03/10 23:37:37;;;;;;;7.10;3.92;;;0.90;22.50;;;;;;5001184;28;34374;-77
2022/03/10 23:40:05;;;;;;;6.40;3.85;;;0.90;22.80;;;;;;5001122;28;34138;-77
2022/03/10 23:42:32;;;;;;;6.97;4.03;;;0.90;22.90;;;;;;5000062;28;34223;-77
2022/03/10 23:44:59;;;;;;;7.03;4.05;;;0.80;23.10;;;;;;5001859;28;35333;-77
2022/03/10 23:47:25;;;;;;;5.75;4.30;;;0.80;23.20;;;;;;5001833;28;34214;-78
2022/03/10 23:49:52;;;;;;;5.72;3.65;;;0.80;23.10;;;;;;5000656;28;34357;-77
2022/03/10 23:52:19;;;;;;;10.38;4.40;;;0.80;23.20;;;;;;5001148;28;34290;-77
2022/03/10 23:54:45;;;;;;;8.07;4.03;;;0.80;23.30;;;;;;5000595;28;35780;-78
2022/03/10 23:57:11;;;;;;;7.63;3.17;;;0.70;23.30;;;;;;5002716;28;34264;-77
2022/03/10 23:59:37;;;;;;;6.70;3.50;;;0.70;23.50;;;;;;5005670;28;34163;-77
